sensor_id;sensor_type;location;lat;lon;timestamp;pressure;altitude;pressure_sealevel;temperature;humidity
48077;BME280;33854;57.708;12.008;2022-07-23T00:00:45;102108.81;;;16.76;100.00
48077;BME280;33854;57.708;12.008;2022-07-23T00:03:12;102106.81;;;16.81;100.00
48077;BME280;33854;57.708;12.008;2022-07-23T00:05:37;102115.41;;;16.85;100.00
48077;BME280;33854;57.708;12.008;2022-07-23T00:08:04;102111.59;;;16.90;100.00
48077;BME280;33854;57.708;12.008;2022-07-23T00:10:30;102112.41;;;16.92;100.00
48077;BME280;33854;57.708;12.008;2022-07-23T00:12:55;102117.53;;;16.95;100.00
48077;BME280;33854;57.708;12.008;2022-07-23T00:15:20;102111.25;;;16.98;100.00
48077;BME280;33854;57.708;12.008;2022-07-23T00:17:46;102112.41;;;16.92;100.00
48077;BME280;33854;57.708;12.008;2022-07-23T00:20:11;102101.69;;;16.95;100.00
48077;BME280;33854;57.708;12.008;2022-07-23T00:22:45;102098.09;;;16.96;100.00
48077;BME280;33854;57.708;12.008;2022-07-23T00:25:11;102093.84;;;16.94;100.00
48077;BME280;33854;57.708;12.008;2022-07-23T00:27:36;102086.94;;;16.91;100.00
48077;BME280;33854;57.708;12.008;2022-07-23T00:30:02;102082.53;;;16.92;100.00
48077;BME280;33854;57.708;12.008;2022-07-23T00:32:27;102081.47;;;16.96;100.00
48077;BME280;33854;57.708;12.008;2022-07-23T00:34:53;102077.16;;;16.93;100.00
48077;BME280;33854;57.708;12.008;2022-07-23T00:37:18;102077.25;;;16.92;100.00
48077;BME280;33854;57.708;12.008;2022-07-23T00:39:43;102075.38;;;16.94;100.00
48077;BME280;33854;57.708;12.008;2022-07-23T00:42:09;102058.81;;;16.92;100.00
48077;BME280;33854;57.708;12.008;2022-07-23T00:44:34;102056.22;;;16.90;100.00
48077;BME280;33854;57.708;12.008;2022-07-23T00:47:00;102052.81;;;16.88;100.00
48077;BME280;33854;57.708;12.008;2022-07-23T00:49:28;102053.94;;;16.84;100.00
48077;BME280;33854;57.708;12.008;2022-07-23T00:51:55;102052.47;;;16.79;100.00
48077;BME280;33854;57.708;12.008;2022-07-23T00:54:23;102048.41;;;16.72;100.00
48077;BME280;33854;57.708;12.008;2022-07-23T00:56:49;102053.75;;;16.70;100.00
48077;BME280;33854;57.708;12.008;2022-07-23T00:59:14;102048.47;;;16.70;100.00
48077;BME280;33854;57.708;12.008;2022-07-23T01:01:41;102045.16;;;16.67;100.00
48077;BME280;33854;57.708;12.008;2022-07-23T01:04:06;102038.44;;;16.61;100.00
48077;BME280;33854;57.708;12.008;2022-07-23T01:06:37;102049.28;;;16.55;100.00
48077;BME280;33854;57.708;12.008;2022-07-23T01:09:04;102046.16;;;16.47;100.00
48077;BME280;33854;57.708;12.008;2022-07-23T01:11:35;102059.63;;;16.41;100.00
48077;BME280;33854;57.708;12.008;2022-07-23T01:14:17;102074.78;;;16.36;100.00
48077;BME280;33854;57.708;12.008;2022-07-23T01:16:46;102082.75;;;16.34;100.00
48077;BME280;33854;57.708;12.008;2022-07-23T01:19:12;102095.03;;;16.35;100.00
48077;BME280;33854;57.708;12.008;2022-07-23T01:21:41;102101.34;;;16.31;100.00
48077;BME280;33854;57.708;12.008;2022-07-23T01:24:08;102104.91;;;16.30;100.00
48077;BME280;33854;57.708;12.008;2022-07-23T01:26:34;102105.06;;;16.27;100.00
48077;BME280;33854;57.708;12.008;2022-07-23T01:29:00;102110.47;;;16.24;100.00
48077;BME280;33854;57.708;12.008;2022-07-23T01:31:26;102111.25;;;16.26;100.00
48077;BME280;33854;57.708;12.008;2022-07-23T01:33:51;102106.16;;;16.23;100.00
48077;BME280;33854;57.708;12.008;2022-07-23T01:36:17;102105.38;;;16.21;100.00
48077;BME280;33854;57.708;12.008;2022-07-23T01:38:42;102089.91;;;16.14;100.00
48077;BME280;33854;57.708;12.008;2022-07-23T01:41:07;102085.50;;;16.14;100.00
48077;BME280;33854;57.708;12.008;2022-07-23T01:43:33;102096.19;;;16.11;100.00
48077;BME280;33854;57.708;12.008;2022-07-23T01:45:58;102083.94;;;16.10;100.00
48077;BME280;33854;57.708;12.008;2022-07-23T01:48:24;102083.25;;;16.07;100.00
48077;BME280;33854;57.708;12.008;2022-07-23T01:50:50;102089.53;;;16.04;100.00
48077;BME280;33854;57.708;12.008;2022-07-23T01:53:16;102078.13;;;16.04;100.00
48077;BME280;33854;57.708;12.008;2022-07-23T01:55:42;102072.91;;;16.02;100.00
48077;BME280;33854;57.708;12.008;2022-07-23T01:58:07;102066.72;;;16.03;100.00
48077;BME280;33854;57.708;12.008;2022-07-23T02:00:33;102058.13;;;16.00;100.00
48077;BME280;33854;57.708;12.008;2022-07-23T02:02:59;102058.34;;;15.95;100.00
48077;BME280;33854;57.708;12.008;2022-07-23T02:05:25;102053.13;;;15.93;100.00
48077;BME280;33854;57.708;12.008;2022-07-23T02:07:51;102056.00;;;15.89;100.00
48077;BME280;33854;57.708;12.008;2022-07-23T02:10:16;102056.19;;;15.84;100.00
48077;BME280;33854;57.708;12.008;2022-07-23T02:12:42;102053.44;;;15.87;100.00
48077;BME280;33854;57.708;12.008;2022-07-23T02:15:08;102051.66;;;15.88;100.00
48077;BME280;33854;57.708;12.008;2022-07-23T02:17:33;102046.25;;;15.91;100.00
48077;BME280;33854;57.708;12.008;2022-07-23T02:19:58;102043.63;;;15.91;100.00
48077;BME280;33854;57.708;12.008;2022-07-23T02:22:24;102051.59;;;15.89;100.00
48077;BME280;33854;57.708;12.008;2022-07-23T02:24:49;102043.03;;;15.84;100.00
48077;BME280;33854;57.708;12.008;2022-07-23T02:27:15;102045.81;;;15.81;100.00
48077;BME280;33854;57.708;12.008;2022-07-23T02:29:40;102056.47;;;15.78;100.00
48077;BME280;33854;57.708;12.008;2022-07-23T02:32:06;102066.09;;;15.79;100.00
48077;BME280;33854;57.708;12.008;2022-07-23T02:34:31;102062.56;;;15.80;100.00
48077;BME280;33854;57.708;12.008;2022-07-23T02:36:56;102054.66;;;15.80;100.00
48077;BME280;33854;57.708;12.008;2022-07-23T02:39:22;102064.25;;;15.81;100.00
48077;BME280;33854;57.708;12.008;2022-07-23T02:41:47;102063.19;;;15.85;100.00
48077;BME280;33854;57.708;12.008;2022-07-23T02:44:13;102066.59;;;15.87;100.00
48077;BME280;33854;57.708;12.008;2022-07-23T02:46:38;102066.59;;;15.87;100.00
48077;BME280;33854;57.708;12.008;2022-07-23T02:49:03;102060.56;;;15.85;100.00
48077;BME280;33854;57.708;12.008;2022-07-23T02:51:30;102058.69;;;15.87;100.00
48077;BME280;33854;57.708;12.008;2022-07-23T02:53:55;102052.66;;;15.85;100.00
48077;BME280;33854;57.708;12.008;2022-07-23T02:56:21;102057.91;;;15.85;100.00
48077;BME280;33854;57.708;12.008;2022-07-23T02:58:46;102050.94;;;15.84;100.00
48077;BME280;33854;57.708;12.008;2022-07-23T03:01:11;102042.13;;;15.85;100.00
48077;BME280;33854;57.708;12.008;2022-07-23T03:03:37;102047.47;;;15.84;100.00
48077;BME280;33854;57.708;12.008;2022-07-23T03:06:03;102044.75;;;15.85;100.00
48077;BME280;33854;57.708;12.008;2022-07-23T03:08:28;102041.56;;;15.79;100.00
48077;BME280;33854;57.708;12.008;2022-07-23T03:10:54;102049.38;;;15.80;100.00
48077;BME280;33854;57.708;12.008;2022-07-23T03:13:19;102054.66;;;15.80;100.00
48077;BME280;33854;57.708;12.008;2022-07-23T03:15:45;102057.44;;;15.77;100.00
48077;BME280;33854;57.708;12.008;2022-07-23T03:18:10;102059.91;;;15.80;100.00
48077;BME280;33854;57.708;12.008;2022-07-23T03:20:36;102057.19;;;15.82;100.00
48077;BME280;33854;57.708;12.008;2022-07-23T03:23:01;102061.47;;;15.84;100.00
48077;BME280;33854;57.708;12.008;2022-07-23T03:25:27;102063.09;;;15.87;100.00
48077;BME280;33854;57.708;12.008;2022-07-23T03:27:52;102061.31;;;15.87;100.00
48077;BME280;33854;57.708;12.008;2022-07-23T03:30:18;102063.97;;;15.87;100.00
48077;BME280;33854;57.708;12.008;2022-07-23T03:32:43;102058.91;;;15.83;100.00
48077;BME280;33854;57.708;12.008;2022-07-23T03:35:10;102052.66;;;15.85;100.00
48077;BME280;33854;57.708;12.008;2022-07-23T03:37:35;102046.81;;;15.79;100.00
48077;BME280;33854;57.708;12.008;2022-07-23T03:40:04;102044.13;;;15.80;100.00
48077;BME280;33854;57.708;12.008;2022-07-23T03:42:29;102040.50;;;15.83;100.00
48077;BME280;33854;57.708;12.008;2022-07-23T03:44:55;102045.75;;;15.83;100.00
48077;BME280;33854;57.708;12.008;2022-07-23T03:47:20;102038.72;;;15.83;100.00
48077;BME280;33854;57.708;12.008;2022-07-23T03:49:47;102039.63;;;15.82;100.00
48077;BME280;33854;57.708;12.008;2022-07-23T03:52:13;102026.63;;;15.79;100.00
48077;BME280;33854;57.708;12.008;2022-07-23T03:54:38;102028.88;;;15.87;100.00
48077;BME280;33854;57.708;12.008;2022-07-23T03:57:04;102023.47;;;15.90;100.00
48077;BME280;33854;57.708;12.008;2022-07-23T03:59:29;102017.09;;;15.95;100.00
48077;BME280;33854;57.708;12.008;2022-07-23T04:01:55;102013.34;;;16.00;100.00
48077;BME280;33854;57.708;12.008;2022-07-23T04:04:20;102007.94;;;16.03;100.00
48077;BME280;33854;57.708;12.008;2022-07-23T04:06:45;102005.94;;;16.08;100.00
48077;BME280;33854;57.708;12.008;2022-07-23T04:09:11;101999.59;;;16.12;100.00
48077;BME280;33854;57.708;12.008;2022-07-23T04:11:37;101998.59;;;16.14;100.00
48077;BME280;33854;57.708;12.008;2022-07-23T04:14:02;101994.91;;;16.18;100.00
48077;BME280;33854;57.708;12.008;2022-07-23T04:16:28;101993.78;;;16.22;100.00
48077;BME280;33854;57.708;12.008;2022-07-23T04:18:53;101994.66;;;16.23;100.00
48077;BME280;33854;57.708;12.008;2022-07-23T04:21:19;101990.16;;;16.25;100.00
48077;BME280;33854;57.708;12.008;2022-07-23T04:23:44;101984.13;;;16.23;100.00
48077;BME280;33854;57.708;12.008;2022-07-23T04:26:10;101982.41;;;16.22;100.00
48077;BME280;33854;57.708;12.008;2022-07-23T04:28:35;101972.81;;;16.21;100.00
48077;BME280;33854;57.708;12.008;2022-07-23T04:31:00;101969.16;;;16.23;100.00
48077;BME280;33854;57.708;12.008;2022-07-23T04:33:26;101966.59;;;16.22;100.00
48077;BME280;33854;57.708;12.008;2022-07-23T04:35:51;101958.34;;;16.29;100.00
48077;BME280;33854;57.708;12.008;2022-07-23T04:38:17;101967.72;;;16.35;100.00
48077;BME280;33854;57.708;12.008;2022-07-23T04:40:42;101956.22;;;16.36;100.00
48077;BME280;33854;57.708;12.008;2022-07-23T04:43:08;101965.84;;;16.37;100.00
48077;BME280;33854;57.708;12.008;2022-07-23T04:45:33;101954.44;;;16.36;100.00
48077;BME280;33854;57.708;12.008;2022-07-23T04:47:58;101946.31;;;16.41;100.00
48077;BME280;33854;57.708;12.008;2022-07-23T04:50:24;101947.00;;;16.44;100.00
48077;BME280;33854;57.708;12.008;2022-07-23T04:52:50;101944.00;;;16.52;100.00
48077;BME280;33854;57.708;12.008;2022-07-23T04:55:16;101938.44;;;16.58;100.00
48077;BME280;33854;57.708;12.008;2022-07-23T04:57:41;101932.84;;;16.64;100.00
48077;BME280;33854;57.708;12.008;2022-07-23T05:00:09;101927.41;;;16.67;100.00
48077;BME280;33854;57.708;12.008;2022-07-23T05:02:34;101932.03;;;16.79;100.00
48077;BME280;33854;57.708;12.008;2022-07-23T05:05:00;101925.41;;;16.88;100.00
48077;BME280;33854;57.708;12.008;2022-07-23T05:07:25;101923.56;;;16.90;100.00
48077;BME280;33854;57.708;12.008;2022-07-23T05:09:51;101919.13;;;16.90;100.00
48077;BME280;33854;57.708;12.008;2022-07-23T05:12:16;101916.47;;;16.90;100.00
48077;BME280;33854;57.708;12.008;2022-07-23T05:14:41;101915.72;;;16.88;100.00
48077;BME280;33854;57.708;12.008;2022-07-23T05:17:07;101900.91;;;16.86;100.00
48077;BME280;33854;57.708;12.008;2022-07-23T05:19:34;101900.44;;;16.95;100.00
48077;BME280;33854;57.708;12.008;2022-07-23T05:22:00;101906.72;;;16.92;100.00
48077;BME280;33854;57.708;12.008;2022-07-23T05:24:25;101897.84;;;16.93;100.00
48077;BME280;33854;57.708;12.008;2022-07-23T05:26:51;101907.56;;;16.93;100.00
48077;BME280;33854;57.708;12.008;2022-07-23T05:29:16;101910.97;;;16.95;100.00
48077;BME280;33854;57.708;12.008;2022-07-23T05:31:41;101916.09;;;16.98;100.00
48077;BME280;33854;57.708;12.008;2022-07-23T05:34:07;101917.75;;;16.99;100.00
48077;BME280;33854;57.708;12.008;2022-07-23T05:36:33;101915.38;;;16.94;100.00
48077;BME280;33854;57.708;12.008;2022-07-23T05:38:58;101908.56;;;16.90;100.00
48077;BME280;33854;57.708;12.008;2022-07-23T05:41:24;101910.28;;;16.91;100.00
48077;BME280;33854;57.708;12.008;2022-07-23T05:43:50;101907.91;;;16.87;100.00
48077;BME280;33854;57.708;12.008;2022-07-23T05:46:15;101904.56;;;16.83;100.00
48077;BME280;33854;57.708;12.008;2022-07-23T05:48:41;101903.03;;;16.79;100.00
48077;BME280;33854;57.708;12.008;2022-07-23T05:51:08;101904.91;;;16.77;100.00
48077;BME280;33854;57.708;12.008;2022-07-23T05:53:34;101899.09;;;16.71;100.00
48077;BME280;33854;57.708;12.008;2022-07-23T05:56:00;101907.69;;;16.74;100.00
48077;BME280;33854;57.708;12.008;2022-07-23T05:58:26;101907.09;;;16.69;100.00
48077;BME280;33854;57.708;12.008;2022-07-23T06:00:52;101902.41;;;16.74;100.00
48077;BME280;33854;57.708;12.008;2022-07-23T06:03:17;101905.06;;;16.74;100.00
48077;BME280;33854;57.708;12.008;2022-07-23T06:05:43;101906.84;;;16.74;100.00
48077;BME280;33854;57.708;12.008;2022-07-23T06:08:08;101910.31;;;16.74;100.00
48077;BME280;33854;57.708;12.008;2022-07-23T06:10:34;101910.44;;;16.73;100.00
48077;BME280;33854;57.708;12.008;2022-07-23T06:12:59;101896.66;;;16.83;100.00
48077;BME280;33854;57.708;12.008;2022-07-23T06:15:24;101908.66;;;16.89;100.00
48077;BME280;33854;57.708;12.008;2022-07-23T06:17:50;101905.53;;;16.98;100.00
48077;BME280;33854;57.708;12.008;2022-07-23T06:20:15;101894.50;;;17.07;100.00
48077;BME280;33854;57.708;12.008;2022-07-23T06:22:41;101899.16;;;17.18;100.00
48077;BME280;33854;57.708;12.008;2022-07-23T06:25:07;101896.63;;;17.32;100.00
48077;BME280;33854;57.708;12.008;2022-07-23T06:27:33;101905.75;;;17.42;100.00
48077;BME280;33854;57.708;12.008;2022-07-23T06:29:58;101906.50;;;17.44;100.00
48077;BME280;33854;57.708;12.008;2022-07-23T06:32:24;101903.00;;;17.43;100.00
48077;BME280;33854;57.708;12.008;2022-07-23T06:34:49;101901.72;;;17.35;100.00
48077;BME280;33854;57.708;12.008;2022-07-23T06:37:15;101903.28;;;17.39;100.00
48077;BME280;33854;57.708;12.008;2022-07-23T06:39:40;101905.63;;;17.43;100.00
48077;BME280;33854;57.708;12.008;2022-07-23T06:42:05;101902.16;;;17.43;100.00
48077;BME280;33854;57.708;12.008;2022-07-23T06:44:31;101900.19;;;17.46;100.00
48077;BME280;33854;57.708;12.008;2022-07-23T06:46:57;101900.88;;;17.50;100.00
48077;BME280;33854;57.708;12.008;2022-07-23T06:49:22;101883.66;;;17.43;100.00
48077;BME280;33854;57.708;12.008;2022-07-23T06:51:47;101895.19;;;17.57;100.00
48077;BME280;33854;57.708;12.008;2022-07-23T06:54:13;101886.00;;;17.64;100.00
48077;BME280;33854;57.708;12.008;2022-07-23T06:56:38;101887.31;;;17.72;100.00
48077;BME280;33854;57.708;12.008;2022-07-23T06:59:04;101889.56;;;17.63;100.00
48077;BME280;33854;57.708;12.008;2022-07-23T07:01:29;101890.50;;;17.62;100.00
48077;BME280;33854;57.708;12.008;2022-07-23T07:03:55;101895.00;;;17.60;100.00
48077;BME280;33854;57.708;12.008;2022-07-23T07:06:20;101893.72;;;17.52;100.00
48077;BME280;33854;57.708;12.008;2022-07-23T07:08:46;101891.53;;;17.44;100.00
48077;BME280;33854;57.708;12.008;2022-07-23T07:11:11;101889.53;;;17.48;100.00
48077;BME280;33854;57.708;12.008;2022-07-23T07:13:37;101891.59;;;17.43;100.00
48077;BME280;33854;57.708;12.008;2022-07-23T07:16:03;101892.09;;;17.34;100.00
48077;BME280;33854;57.708;12.008;2022-07-23T07:18:29;101894.91;;;17.31;100.00
48077;BME280;33854;57.708;12.008;2022-07-23T07:20:54;101893.97;;;17.32;100.00
48077;BME280;33854;57.708;12.008;2022-07-23T07:23:20;101889.63;;;17.31;100.00
48077;BME280;33854;57.708;12.008;2022-07-23T07:25:46;101891.69;;;17.26;100.00
48077;BME280;33854;57.708;12.008;2022-07-23T07:28:11;101883.44;;;17.32;100.00
48077;BME280;33854;57.708;12.008;2022-07-23T07:30:37;101889.81;;;17.43;100.00
48077;BME280;33854;57.708;12.008;2022-07-23T07:33:02;101896.97;;;17.57;100.00
48077;BME280;33854;57.708;12.008;2022-07-23T07:35:28;101895.00;;;17.60;100.00
48077;BME280;33854;57.708;12.008;2022-07-23T07:37:54;101896.56;;;17.64;100.00
48077;BME280;33854;57.708;12.008;2022-07-23T07:40:19;101903.50;;;17.65;100.00
48077;BME280;33854;57.708;12.008;2022-07-23T07:42:50;101898.59;;;17.59;100.00
48077;BME280;33854;57.708;12.008;2022-07-23T07:45:16;101893.81;;;17.66;100.00
48077;BME280;33854;57.708;12.008;2022-07-23T07:47:42;101897.22;;;17.68;100.00
48077;BME280;33854;57.708;12.008;2022-07-23T07:50:09;101895.00;;;17.76;100.00
48077;BME280;33854;57.708;12.008;2022-07-23T07:52:35;101899.03;;;17.97;100.00
48077;BME280;33854;57.708;12.008;2022-07-23T07:55:04;101900.56;;;18.01;100.00
48077;BME280;33854;57.708;12.008;2022-07-23T07:57:30;101908.13;;;18.07;100.00
48077;BME280;33854;57.708;12.008;2022-07-23T07:59:55;101914.50;;;18.03;100.00
48077;BME280;33854;57.708;12.008;2022-07-23T08:02:21;101918.25;;;17.99;100.00
48077;BME280;33854;57.708;12.008;2022-07-23T08:04:46;101920.66;;;18.04;100.00
48077;BME280;33854;57.708;12.008;2022-07-23T08:07:12;101926.88;;;18.03;100.00
48077;BME280;33854;57.708;12.008;2022-07-23T08:09:38;101925.13;;;17.88;100.00
48077;BME280;33854;57.708;12.008;2022-07-23T08:12:03;101917.47;;;17.83;100.00
48077;BME280;33854;57.708;12.008;2022-07-23T08:14:29;101917.38;;;17.85;100.00
48077;BME280;33854;57.708;12.008;2022-07-23T08:16:54;101928.34;;;17.93;100.00
48077;BME280;33854;57.708;12.008;2022-07-23T08:19:19;101927.31;;;17.95;100.00
48077;BME280;33854;57.708;12.008;2022-07-23T08:21:45;101928.81;;;17.99;100.00
48077;BME280;33854;57.708;12.008;2022-07-23T08:24:10;101925.59;;;18.10;100.00
48077;BME280;33854;57.708;12.008;2022-07-23T08:26:36;101932.75;;;18.08;100.00
48077;BME280;33854;57.708;12.008;2022-07-23T08:29:01;101934.72;;;18.04;100.00
48077;BME280;33854;57.708;12.008;2022-07-23T08:31:26;101938.28;;;18.03;100.00
48077;BME280;33854;57.708;12.008;2022-07-23T08:33:52;101934.13;;;17.99;100.00
48077;BME280;33854;57.708;12.008;2022-07-23T08:36:17;101934.94;;;18.15;100.00
48077;BME280;33854;57.708;12.008;2022-07-23T08:38:43;101936.25;;;18.22;100.00
48077;BME280;33854;57.708;12.008;2022-07-23T08:41:09;101944.63;;;18.31;100.00
48077;BME280;33854;57.708;12.008;2022-07-23T08:43:34;101948.31;;;18.42;100.00
48077;BME280;33854;57.708;12.008;2022-07-23T08:46:01;101960.00;;;18.54;100.00
48077;BME280;33854;57.708;12.008;2022-07-23T08:48:32;101946.38;;;18.60;100.00
48077;BME280;33854;57.708;12.008;2022-07-23T08:51:00;101959.84;;;18.71;100.00
48077;BME280;33854;57.708;12.008;2022-07-23T08:53:27;101951.78;;;18.72;100.00
48077;BME280;33854;57.708;12.008;2022-07-23T08:55:55;101953.22;;;18.78;100.00
48077;BME280;33854;57.708;12.008;2022-07-23T08:58:21;101947.63;;;18.68;100.00
48077;BME280;33854;57.708;12.008;2022-07-23T09:00:48;101949.03;;;18.74;100.00
48077;BME280;33854;57.708;12.008;2022-07-23T09:03:23;101948.03;;;18.76;100.00
48077;BME280;33854;57.708;12.008;2022-07-23T09:05:50;101935.06;;;18.72;100.00
48077;BME280;33854;57.708;12.008;2022-07-23T09:08:19;101940.00;;;18.78;100.00
48077;BME280;33854;57.708;12.008;2022-07-23T09:10:56;101933.09;;;18.75;100.00
48077;BME280;33854;57.708;12.008;2022-07-23T09:15:52;101940.84;;;18.78;100.00
48077;BME280;33854;57.708;12.008;2022-07-23T09:18:18;101939.44;;;18.87;100.00
48077;BME280;33854;57.708;12.008;2022-07-23T09:20:44;101941.88;;;18.90;100.00
48077;BME280;33854;57.708;12.008;2022-07-23T09:23:10;101939.69;;;18.83;100.00
48077;BME280;33854;57.708;12.008;2022-07-23T09:25:35;101942.06;;;19.01;100.00
48077;BME280;33854;57.708;12.008;2022-07-23T09:28:01;101943.00;;;19.14;100.00
48077;BME280;33854;57.708;12.008;2022-07-23T09:30:33;101958.50;;;19.20;100.00
48077;BME280;33854;57.708;12.008;2022-07-23T09:35:54;101950.00;;;19.15;100.00
48077;BME280;33854;57.708;12.008;2022-07-23T09:38:23;101959.91;;;19.12;100.00
48077;BME280;33854;57.708;12.008;2022-07-23T09:41:08;101951.81;;;19.01;100.00
48077;BME280;33854;57.708;12.008;2022-07-23T09:43:34;101956.91;;;18.90;100.00
48077;BME280;33854;57.708;12.008;2022-07-23T09:46:26;101957.47;;;18.95;100.00
48077;BME280;33854;57.708;12.008;2022-07-23T09:48:53;101955.78;;;18.94;100.00
48077;BME280;33854;57.708;12.008;2022-07-23T09:51:19;101960.59;;;19.01;100.00
48077;BME280;33854;57.708;12.008;2022-07-23T09:54:03;101967.00;;;18.97;100.00
48077;BME280;33854;57.708;12.008;2022-07-23T09:56:29;101966.63;;;19.03;100.00
48077;BME280;33854;57.708;12.008;2022-07-23T09:58:56;101959.06;;;18.97;100.00
48077;BME280;33854;57.708;12.008;2022-07-23T10:01:31;101962.75;;;18.95;100.00
48077;BME280;33854;57.708;12.008;2022-07-23T10:03:57;101972.47;;;18.94;100.00
48077;BME280;33854;57.708;12.008;2022-07-23T10:06:23;101969.84;;;18.94;100.00
48077;BME280;33854;57.708;12.008;2022-07-23T10:08:50;101976.09;;;18.93;100.00
48077;BME280;33854;57.708;12.008;2022-07-23T10:11:16;101972.28;;;18.97;100.00
48077;BME280;33854;57.708;12.008;2022-07-23T10:13:42;101962.50;;;18.85;100.00
48077;BME280;33854;57.708;12.008;2022-07-23T10:16:13;101963.63;;;18.95;100.00
48077;BME280;33854;57.708;12.008;2022-07-23T10:18:39;101978.06;;;19.04;100.00
48077;BME280;33854;57.708;12.008;2022-07-23T10:21:07;101988.84;;;19.15;100.00
48077;BME280;33854;57.708;12.008;2022-07-23T10:23:39;101991.78;;;19.24;100.00
48077;BME280;33854;57.708;12.008;2022-07-23T10:29:13;101996.69;;;19.30;100.00
48077;BME280;33854;57.708;12.008;2022-07-23T10:32:09;102002.25;;;19.40;100.00
48077;BME280;33854;57.708;12.008;2022-07-23T10:34:49;102003.59;;;19.47;100.00
48077;BME280;33854;57.708;12.008;2022-07-23T10:37:23;101998.19;;;19.63;100.00
48077;BME280;33854;57.708;12.008;2022-07-23T10:42:36;101989.41;;;19.62;100.00
48077;BME280;33854;57.708;12.008;2022-07-23T10:45:22;101981.44;;;19.62;100.00
48077;BME280;33854;57.708;12.008;2022-07-23T10:47:48;101997.16;;;19.65;100.00
48077;BME280;33854;57.708;12.008;2022-07-23T10:58:00;101974.31;;;19.77;100.00
48077;BME280;33854;57.708;12.008;2022-07-23T11:00:27;101978.22;;;19.71;100.00
48077;BME280;33854;57.708;12.008;2022-07-23T11:02:56;101972.72;;;19.60;100.00
48077;BME280;33854;57.708;12.008;2022-07-23T11:05:26;101967.84;;;19.54;100.00
48077;BME280;33854;57.708;12.008;2022-07-23T11:10:36;101970.38;;;19.56;100.00
48077;BME280;33854;57.708;12.008;2022-07-23T11:31:54;101976.31;;;20.00;100.00
48077;BME280;33854;57.708;12.008;2022-07-23T11:34:40;101981.44;;;19.89;100.00
48077;BME280;33854;57.708;12.008;2022-07-23T11:37:08;101973.69;;;19.86;100.00
48077;BME280;33854;57.708;12.008;2022-07-23T11:39:35;101964.41;;;19.93;100.00
48077;BME280;33854;57.708;12.008;2022-07-23T11:42:02;101967.13;;;19.79;100.00
48077;BME280;33854;57.708;12.008;2022-07-23T11:44:31;101961.94;;;19.63;100.00
48077;BME280;33854;57.708;12.008;2022-07-23T11:47:02;101962.78;;;19.64;100.00
48077;BME280;33854;57.708;12.008;2022-07-23T11:49:27;101954.50;;;19.56;100.00
48077;BME280;33854;57.708;12.008;2022-07-23T11:52:13;101962.28;;;19.45;100.00
48077;BME280;33854;57.708;12.008;2022-07-23T11:57:13;101952.47;;;19.04;100.00
48077;BME280;33854;57.708;12.008;2022-07-23T11:59:39;101956.81;;;19.19;100.00
48077;BME280;33854;57.708;12.008;2022-07-23T12:02:06;101957.19;;;19.27;100.00
48077;BME280;33854;57.708;12.008;2022-07-23T12:04:42;101958.22;;;19.39;100.00
48077;BME280;33854;57.708;12.008;2022-07-23T12:09:52;101957.00;;;19.45;100.00
48077;BME280;33854;57.708;12.008;2022-07-23T12:12:17;101946.25;;;19.60;100.00
48077;BME280;33854;57.708;12.008;2022-07-23T12:14:55;101958.03;;;19.83;100.00
48077;BME280;33854;57.708;12.008;2022-07-23T12:17:31;101956.13;;;19.85;100.00
48077;BME280;33854;57.708;12.008;2022-07-23T12:19:58;101963.94;;;19.86;100.00
48077;BME280;33854;57.708;12.008;2022-07-23T12:22:26;101965.91;;;19.97;100.00
48077;BME280;33854;57.708;12.008;2022-07-23T12:25:44;101976.25;;;20.14;100.00
48077;BME280;33854;57.708;12.008;2022-07-23T12:28:06;101973.59;;;20.14;100.00
48077;BME280;33854;57.708;12.008;2022-07-23T12:30:53;101977.72;;;20.18;100.00
48077;BME280;33854;57.708;12.008;2022-07-23T12:33:33;101967.41;;;20.28;100.00
48077;BME280;33854;57.708;12.008;2022-07-23T12:36:01;101983.13;;;20.43;100.00
48077;BME280;33854;57.708;12.008;2022-07-23T12:38:40;101988.47;;;20.69;100.00
48077;BME280;33854;57.708;12.008;2022-07-23T12:41:05;101993.38;;;20.75;100.00
48077;BME280;33854;57.708;12.008;2022-07-23T12:43:33;102004.91;;;20.74;100.00
48077;BME280;33854;57.708;12.008;2022-07-23T12:48:39;101997.94;;;20.85;100.00
48077;BME280;33854;57.708;12.008;2022-07-23T12:51:15;102012.16;;;21.10;100.00
48077;BME280;33854;57.708;12.008;2022-07-23T12:53:49;102014.94;;;21.08;100.00
48077;BME280;33854;57.708;12.008;2022-07-23T12:56:16;102006.84;;;20.84;100.00
48077;BME280;33854;57.708;12.008;2022-07-23T13:04:04;101997.28;;;21.07;100.00
48077;BME280;33854;57.708;12.008;2022-07-23T13:06:38;101991.56;;;21.00;100.00
48077;BME280;33854;57.708;12.008;2022-07-23T13:09:07;101984.75;;;20.84;100.00
48077;BME280;33854;57.708;12.008;2022-07-23T13:11:33;101973.09;;;20.74;100.00
48077;BME280;33854;57.708;12.008;2022-07-23T13:13:59;101959.50;;;20.66;100.00
48077;BME280;33854;57.708;12.008;2022-07-23T13:16:26;101939.56;;;20.60;100.00
48077;BME280;33854;57.708;12.008;2022-07-23T13:18:51;101938.91;;;20.69;100.00
48077;BME280;33854;57.708;12.008;2022-07-23T13:21:17;101941.16;;;20.63;100.00
48077;BME280;33854;57.708;12.008;2022-07-23T13:23:42;101927.69;;;20.66;100.00